Terminal Aerodrome Forecast
Issued by NWS Greer, SC

Home | Current Version | Previous Version | Text Only | Print | Product List | Glossary On
Versions: 1 2 3 4 5 6 7 8 9 10 11 12 13 14 15 16
242
FTUS42 KGSP 241121
TAFGSP
TAF
KGSP 241121Z 2412/2512 03010G18KT P6SM -SHRA OVC008
      TEMPO 2412/2416 4SM SHRA BR SCT008 OVC012
     FM241600 04013G22KT 4SM SHRA BR OVC007
     FM242100 03012G21KT 4SM -SHRA BR OVC007
     FM250400 02010KT P6SM -SHRA OVC004
     FM250800 02008KT P6SM OVC007=

USA.gov is the U.S. government's official web portal to all federal, state and local government web resources and services.